createdAt,value
2015-11-10T11:07:16.942Z,21790
2015-11-10T11:07:29.648Z,21798
2015-11-10T11:07:42.085Z,21827
2015-11-10T11:07:56.038Z,21827
2015-11-10T11:08:08.476Z,21808
2015-11-10T11:08:21.648Z,21142
2015-11-10T11:08:35.009Z,21227
2015-11-10T11:08:48.228Z,21254
2015-11-10T11:09:00.462Z,21255
2015-11-10T11:09:12.618Z,21247
2015-11-10T11:09:25.197Z,21207
2015-11-10T11:09:37.326Z,21217
2015-11-10T11:09:49.888Z,21208
2015-11-10T11:10:02.107Z,21218
2015-11-10T11:10:14.560Z,21227
2015-11-10T11:10:27.732Z,21200
2015-11-10T11:10:40.312Z,21247
2015-11-10T11:10:52.734Z,21046
2015-11-10T11:11:04.828Z,20944
2015-11-10T11:11:16.953Z,22052
2015-11-10T11:11:29.159Z,22023
2015-11-10T11:11:42.284Z,22062
2015-11-10T11:11:54.893Z,22043
2015-11-10T11:12:07.440Z,22053
2015-11-10T11:12:19.690Z,22063
2015-11-10T11:12:32.348Z,22082
2015-11-10T11:12:44.661Z,22082
2015-11-10T11:12:57.270Z,22073
2015-11-10T11:13:09.567Z,22073
2015-11-10T11:13:21.739Z,22083
2015-11-10T11:13:33.929Z,22075
2015-11-10T11:13:46.117Z,22085
2015-11-10T11:13:58.539Z,22085
2015-11-10T11:14:10.882Z,22076
2015-11-10T11:14:23.070Z,22086
2015-11-10T11:14:35.682Z,22106
2015-11-10T11:14:47.948Z,22088
2015-11-10T11:15:00.104Z,22070
2015-11-10T11:15:12.651Z,22108
2015-11-10T11:15:25.854Z,22108
2015-11-10T11:15:38.920Z,22100
2015-11-10T11:15:51.560Z,22118
2015-11-10T11:16:03.732Z,22110
2015-11-10T11:16:15.920Z,22101
2015-11-10T11:16:28.154Z,22111
2015-11-10T11:16:40.234Z,22121
2015-11-10T11:16:52.844Z,22131
2015-11-10T11:17:05.562Z,22123
2015-11-10T11:17:17.625Z,22114
2015-11-10T11:17:30.003Z,22116
2015-11-10T11:17:46.393Z,22118
2015-11-10T11:17:58.487Z,22136
2015-11-10T11:18:10.612Z,22144
2015-11-10T11:18:23.065Z,22134
2015-11-10T11:18:36.052Z,22144
2015-11-10T11:18:48.192Z,22171
2015-11-10T11:19:00.880Z,22171
2015-11-10T11:19:13.958Z,22171
2015-11-10T11:19:26.270Z,22171
2015-11-10T11:19:38.914Z,22181
2015-11-10T11:19:51.508Z,22173
2015-11-10T11:20:03.758Z,22193
2015-11-10T11:20:17.258Z,22203
2015-11-10T11:20:33.573Z,22221
2015-11-10T11:20:47.620Z,22194
2015-11-10T11:21:00.230Z,22214
2015-11-10T11:21:12.745Z,22232
2015-11-10T11:21:24.964Z,22224
2015-11-10T11:21:38.498Z,22242
2015-11-10T11:21:50.858Z,22234
2015-11-10T11:22:03.545Z,22254
2015-11-10T11:22:15.748Z,22262
2015-11-10T11:22:28.654Z,22272
2015-11-10T11:22:41.063Z,22272
2015-11-10T11:22:53.281Z,22282
2015-11-10T11:23:05.375Z,22282
2015-11-10T11:23:17.422Z,22321
2015-11-10T11:23:29.594Z,22321
2015-11-10T11:23:42.144Z,22339
2015-11-10T11:23:57.284Z,22367
2015-11-10T11:24:09.378Z,22357
2015-11-10T11:24:21.863Z,22376
2015-11-10T11:24:34.333Z,22396
2015-11-10T11:24:46.990Z,22396
2015-11-10T11:24:59.177Z,22396
2015-11-10T11:25:11.927Z,22387
2015-11-10T11:25:24.130Z,22396
2015-11-10T11:25:36.477Z,22416
2015-11-10T11:25:48.789Z,22416
2015-11-10T11:26:01.930Z,22434
2015-11-10T11:26:14.774Z,22446
2015-11-10T11:26:27.789Z,22436
2015-11-10T11:26:40.371Z,22464
2015-11-10T11:26:53.574Z,22474
2015-11-10T11:27:06.183Z,22456
2015-11-10T11:27:18.589Z,22466
2015-11-10T11:27:30.858Z,22475
2015-11-10T11:27:43.499Z,22466
2015-11-10T11:27:56.124Z,22475
2015-11-10T11:28:08.452Z,22486
2015-11-10T11:28:21.545Z,22486
2015-11-10T11:28:34.111Z,22505
2015-11-10T11:28:47.205Z,22505
2015-11-10T11:29:00.283Z,22534
2015-11-10T11:29:16.736Z,22525
2015-11-10T11:29:29.017Z,22535
2015-11-10T11:29:41.769Z,22545
2015-11-10T11:29:54.550Z,22555
2015-11-10T11:30:07.285Z,22574
2015-11-10T11:30:19.582Z,22592
2015-11-10T11:30:31.897Z,22592
2015-11-10T11:30:44.132Z,22610
2015-11-10T11:30:57.147Z,22612
2015-11-10T11:31:10.022Z,22640
2015-11-10T11:31:27.460Z,22650
2015-11-10T11:31:40.806Z,22652
2015-11-10T11:31:53.931Z,22662
2015-11-10T11:32:08.385Z,22680
2015-11-10T11:32:20.619Z,22690
2015-11-10T11:32:33.340Z,22682
2015-11-10T11:32:45.746Z,22673
2015-11-10T11:32:57.855Z,22692
2015-11-10T11:33:10.402Z,22702
2015-11-10T11:33:22.574Z,22702
2015-11-10T11:33:35.186Z,22712
2015-11-10T11:33:48.233Z,22712
2015-11-10T11:34:00.983Z,22703
2015-11-10T11:34:13.577Z,22732
2015-11-10T11:34:25.733Z,22732
2015-11-10T11:34:37.782Z,22732
2015-11-10T11:34:50.501Z,22760
2015-11-10T11:35:02.642Z,22752
2015-11-10T11:35:14.970Z,22780
2015-11-10T11:35:27.204Z,22770
2015-11-10T11:35:39.395Z,22807
2015-11-10T11:35:51.551Z,22807
2015-11-10T11:36:04.098Z,22825
2015-11-10T11:36:16.551Z,22807
2015-11-10T11:36:31.723Z,22853
2015-11-10T11:36:43.866Z,22845
2015-11-10T11:36:56.319Z,22845
2015-11-10T11:37:08.851Z,22873
2015-11-10T11:37:21.694Z,22873
2015-11-10T11:37:34.104Z,22892
2015-11-10T11:37:46.666Z,22902
2015-11-10T11:37:58.697Z,22910
2015-11-10T11:38:10.776Z,22938
2015-11-10T11:38:23.354Z,22947
2015-11-10T11:38:36.199Z,22975
2015-11-10T11:38:48.340Z,22993
2015-11-10T11:39:01.153Z,22993
2015-11-10T11:39:13.309Z,23003
2015-11-10T11:39:25.418Z,23003
2015-11-10T11:39:38.046Z,23022
2015-11-10T11:39:58.406Z,23040
2015-11-10T11:40:11.156Z,23048
2015-11-10T11:40:23.609Z,23095
2015-11-10T11:40:36.127Z,23114
2015-11-10T11:40:49.112Z,23132
2015-11-10T11:41:01.768Z,23150
2015-11-10T11:41:13.940Z,23169
2015-11-10T11:41:26.346Z,23197
2015-11-10T11:41:38.911Z,23205
2015-11-10T11:41:52.067Z,23242
2015-11-10T11:42:04.614Z,23269
2015-11-10T11:42:16.770Z,23295
2015-11-10T11:42:29.004Z,23286
2015-11-10T11:42:41.664Z,23332
2015-11-10T11:42:54.273Z,23341
2015-11-10T11:43:07.039Z,23341
2015-11-10T11:43:20.085Z,23377
2015-11-10T11:43:32.742Z,23396
2015-11-10T11:43:45.009Z,23396
2015-11-10T11:43:57.666Z,23442
2015-11-10T11:44:10.978Z,23442
2015-11-10T11:44:23.134Z,23424
2015-11-10T11:44:35.325Z,23442
2015-11-10T11:44:47.497Z,23461
2015-11-10T11:45:02.559Z,23487
2015-11-10T11:45:15.512Z,23514
2015-11-10T11:45:29.153Z,23541
2015-11-10T11:45:41.750Z,23549
2015-11-10T11:45:54.328Z,23584
2015-11-10T11:46:07.375Z,23611
2015-11-10T11:46:19.781Z,23648
2015-11-10T11:46:32.265Z,23656
2015-11-10T11:46:44.362Z,23666
2015-11-10T11:46:56.471Z,23694
2015-11-10T11:47:08.612Z,23678
2015-11-10T11:47:21.096Z,23689
2015-11-10T11:47:33.206Z,23704
2015-11-10T11:47:45.770Z,23654
2015-11-10T11:47:59.067Z,23667
2015-11-10T11:48:11.114Z,23679
2015-11-10T11:48:23.161Z,23716
2015-11-10T11:48:35.255Z,23742
2015-11-10T11:48:47.398Z,23740
2015-11-10T11:48:59.992Z,23775
2015-11-10T11:49:12.555Z,23779
2015-11-10T11:49:25.008Z,23856
2015-11-10T11:49:37.198Z,23913
2015-11-10T11:49:50.339Z,24023
2015-11-10T11:50:03.495Z,24073
2015-11-10T11:50:16.058Z,24125
2015-11-10T11:50:28.667Z,24180
2015-11-10T11:50:42.045Z,24199
2015-11-10T11:50:55.076Z,24217
2015-11-10T11:51:07.592Z,24272
2015-11-10T11:51:19.670Z,24280
2015-11-10T11:51:32.592Z,24309
2015-11-10T11:51:48.172Z,24359
2015-11-10T11:52:00.578Z,24372
2015-11-10T11:52:13.234Z,24409
2015-11-10T11:52:26.297Z,24411
2015-11-10T11:52:38.300Z,24440
2015-11-10T11:52:50.941Z,24491
2015-11-10T11:53:03.784Z,24526
2015-11-10T17:09:09.962Z,15
2015-11-10T17:09:23.697Z,15
2015-11-10T17:09:37.415Z,15
2015-11-10T17:09:50.697Z,15
2015-11-10T17:10:04.110Z,15
2015-11-10T17:10:16.391Z,15
2015-11-10T17:10:28.578Z,15
2015-11-10T17:10:44.766Z,15
2015-11-10T17:10:56.875Z,15
2015-11-10T17:11:09.539Z,15
2015-11-10T17:11:21.977Z,15
2015-11-10T17:11:37.414Z,0
2015-11-10T17:11:51.148Z,15
2015-11-10T17:12:03.609Z,15
2015-11-10T17:12:16.000Z,15
2015-11-10T17:12:28.578Z,15
2015-11-10T17:12:41.609Z,15
2015-11-10T17:12:54.734Z,15
2015-11-10T17:13:08.773Z,15
2015-11-10T17:13:21.773Z,15
2015-11-10T17:13:34.711Z,15
2015-11-10T17:13:46.742Z,15
2015-11-10T17:13:59.617Z,15
2015-11-10T17:14:11.801Z,15
2015-11-10T17:14:24.911Z,15
2015-11-10T17:14:37.208Z,15
2015-11-10T17:14:50.114Z,15
2015-11-10T17:15:02.379Z,15
2015-11-10T17:15:14.612Z,15
2015-11-10T17:15:26.799Z,15
2015-11-10T17:15:39.143Z,15
2015-11-10T17:15:51.440Z,15
2015-11-10T17:16:03.939Z,15
2015-11-10T17:16:16.423Z,15
2015-11-10T17:16:28.861Z,15
2015-11-10T17:16:41.001Z,15
2015-11-10T17:16:53.251Z,15
2015-11-10T17:17:06.047Z,15
2015-11-10T17:17:19.172Z,15
2015-11-10T17:17:31.954Z,15
2015-11-10T17:17:44.157Z,15
2015-11-10T17:17:56.344Z,15
2015-11-10T17:18:08.779Z,15
2015-11-10T17:18:21.263Z,15
2015-11-10T17:18:34.029Z,15
2015-11-10T17:18:46.076Z,15
2015-11-10T17:19:00.404Z,15
2015-11-10T17:19:12.623Z,15
2015-11-10T17:19:24.998Z,15
2015-11-10T17:19:37.748Z,15
2015-11-10T17:19:49.858Z,15
2015-11-10T17:20:02.311Z,15
2015-11-10T17:20:15.735Z,15
2015-11-10T17:20:29.532Z,15
2015-11-10T17:20:41.938Z,15
2015-11-10T17:20:54.344Z,15
2015-11-10T17:21:06.783Z,15
2015-11-10T17:21:21.908Z,15
2015-11-10T17:21:34.251Z,15
2015-11-10T17:21:46.642Z,15
2015-11-10T17:21:58.908Z,15
2015-11-10T17:22:13.237Z,15
2015-11-10T17:22:27.096Z,15
2015-11-10T17:22:39.659Z,15
2015-11-10T17:22:52.096Z,15
2015-11-10T17:23:04.940Z,15
2015-11-10T17:23:17.269Z,15
2015-11-10T17:23:30.785Z,15
2015-11-10T17:23:44.097Z,15
2015-11-10T17:23:56.503Z,15
2015-11-10T17:24:09.490Z,15
2015-11-10T17:24:22.537Z,15
2015-11-10T17:24:34.646Z,15
2015-11-10T17:24:46.880Z,15
2015-11-10T17:24:58.927Z,15
2015-11-10T17:25:11.992Z,15
2015-11-10T17:25:24.211Z,15
2015-11-10T17:25:37.179Z,15
2015-11-10T17:25:52.476Z,15
2015-11-10T17:26:04.664Z,15
2015-11-10T17:26:16.807Z,15
2015-11-10T17:26:28.995Z,15
2015-11-10T17:26:42.089Z,15
2015-11-10T17:26:54.495Z,15
2015-11-10T17:27:07.481Z,15
2015-11-10T17:27:19.778Z,15
2015-11-10T17:27:32.012Z,15
2015-11-10T17:27:44.934Z,15
2015-11-10T17:27:58.028Z,15
2015-11-10T17:28:11.264Z,15
2015-11-10T17:28:24.124Z,15
2015-11-10T17:28:36.280Z,15
2015-11-10T17:28:48.874Z,15
2015-11-10T17:29:01.327Z,15
2015-11-10T17:29:14.283Z,15
2015-11-10T17:29:34.596Z,15
